Time;durP1;ratioP1;P1;durP2;ratioP2;P2;SDS_P1;SDS_P2;PMS_P1;PMS_P2;Temp;Humidity;BMP_temperature;BMP_pressure;BME280_temperature;BME280_humidity;BME280_pressure;Samples;Min_cycle;Max_cycle;Signal;HPM_P1;HPM_P2
2021/05/14 00:01:54;;;;;;;28.75;16.15;;;11.00;99.90;;;;;;4904182;29;20060;-88
2021/05/14 00:04:23;;;;;;;27.35;15.48;;;10.80;99.90;;;;;;4906322;29;20052;-87
2021/05/14 00:06:51;;;;;;;33.33;18.00;;;10.80;99.90;;;;;;4908044;29;20052;-87
2021/05/14 00:09:18;;;;;;;37.20;17.65;;;10.80;99.90;;;;;;4900850;29;20072;-89
2021/05/14 00:11:46;;;;;;;33.92;19.55;;;11.80;99.90;;;;;;4915588;29;20056;-89
2021/05/14 00:14:14;;;;;;;30.92;16.73;;;10.90;99.90;;;;;;4917631;29;20056;-87
2021/05/14 00:16:42;;;;;;;36.65;19.52;;;11.00;99.90;;;;;;4877942;29;20063;-87
2021/05/14 00:19:10;;;;;;;35.15;19.05;;;11.00;99.90;;;;;;4883645;29;20076;-88
2021/05/14 00:21:38;;;;;;;34.58;19.23;;;11.00;99.90;;;;;;4902763;29;20056;-87
2021/05/14 00:24:06;;;;;;;33.67;18.48;;;11.00;99.90;;;;;;4904264;29;20056;-89
2021/05/14 00:26:34;;;;;;;36.28;19.73;;;10.90;99.90;;;;;;4906194;29;20059;-88
2021/05/14 00:29:02;;;;;;;38.30;19.35;;;10.80;99.90;;;;;;4897986;29;20057;-87
2021/05/14 00:31:29;;;;;;;34.15;18.70;;;10.80;99.90;;;;;;4885087;29;20504;-88
2021/05/14 00:34:00;;;;;;;33.67;19.90;;;10.60;99.90;;;;;;4892502;29;20072;-86
2021/05/14 00:36:28;;;;;;;36.03;19.35;;;10.70;99.90;;;;;;4900728;29;20060;-87
2021/05/14 00:38:56;;;;;;;40.30;21.27;;;10.60;99.90;;;;;;4912809;29;20063;-88
2021/05/14 00:41:24;;;;;;;41.17;20.80;;;10.80;99.90;;;;;;4895632;29;20093;-89
2021/05/14 00:43:52;;;;;;;46.53;24.15;;;10.70;99.90;;;;;;4887419;29;20663;-88
2021/05/14 00:46:22;;;;;;;43.05;21.52;;;10.50;99.90;;;;;;4904357;29;20685;-87
2021/05/14 00:48:50;;;;;;;44.03;23.80;;;10.70;99.90;;;;;;4906422;29;20057;-88
2021/05/14 00:51:18;;;;;;;37.63;22.85;;;10.50;99.90;;;;;;4887905;29;20063;-87
2021/05/14 00:53:46;;;;;;;40.83;23.23;;;10.60;99.90;;;;;;4894527;29;20731;-87
2021/05/14 00:56:13;;;;;;;49.33;26.33;;;10.70;99.90;;;;;;4890438;29;20137;-88
2021/05/14 00:58:41;;;;;;;46.25;25.33;;;11.20;99.90;;;;;;4892697;29;20052;-89
2021/05/14 01:01:09;;;;;;;50.70;26.50;;;10.80;99.90;;;;;;4908853;29;20060;-86
2021/05/14 01:03:37;;;;;;;46.85;23.40;;;10.80;99.90;;;;;;4904385;29;20079;-89
2021/05/14 01:06:04;;;;;;;47.67;25.55;;;10.80;99.90;;;;;;4904543;29;20065;-88
2021/05/14 01:08:32;;;;;;;43.38;24.02;;;11.00;99.90;;;;;;4910612;29;20056;-87
2021/05/14 01:11:00;;;;;;;43.95;23.40;;;11.00;99.90;;;;;;4922128;29;20420;-88
2021/05/14 01:13:30;;;;;;;48.60;24.48;;;11.00;99.90;;;;;;4893047;29;20407;-86
2021/05/14 01:15:58;;;;;;;45.55;24.38;;;11.20;99.90;;;;;;4907868;29;20057;-88
2021/05/14 01:18:26;;;;;;;41.60;23.50;;;11.00;99.90;;;;;;4899837;29;20068;-87
2021/05/14 01:20:54;;;;;;;44.15;24.35;;;11.40;99.90;;;;;;4915031;29;20067;-87
2021/05/14 01:23:22;;;;;;;43.20;21.33;;;11.50;99.90;;;;;;4571762;29;9999948;-87
2021/05/14 01:25:49;;;;;;;40.42;22.60;;;11.40;99.90;;;;;;4906010;29;20257;-86
2021/05/14 01:28:18;;;;;;;44.25;21.33;;;10.90;99.90;;;;;;4914194;29;20071;-86
2021/05/14 01:30:47;;;;;;;42.35;22.17;;;11.00;99.90;;;;;;4897204;29;20056;-88
2021/05/14 01:33:15;;;;;;;49.25;24.08;;;11.10;99.90;;;;;;4887199;29;20400;-86
2021/05/14 01:35:43;;;;;;;42.42;23.83;;;11.10;99.90;;;;;;4910792;29;20214;-88
2021/05/14 01:38:11;;;;;;;39.38;24.40;;;11.20;99.90;;;;;;4907110;29;20496;-88
2021/05/14 01:40:40;;;;;;;38.38;19.73;;;11.10;99.90;;;;;;4903897;29;20052;-87
2021/05/14 01:43:08;;;;;;;36.33;19.45;;;11.10;99.90;;;;;;4894450;29;20063;-87
2021/05/14 01:45:36;;;;;;;38.05;17.08;;;12.20;99.90;;;;;;4906483;29;20056;-87
2021/05/14 01:48:04;;;;;;;27.73;14.73;;;11.20;99.90;;;;;;4900449;29;20083;-88
2021/05/14 01:50:32;;;;;;;32.53;16.95;;;11.10;99.90;;;;;;4891373;29;20052;-85
2021/05/14 01:53:00;;;;;;;32.85;17.10;;;11.10;99.90;;;;;;4902760;29;20060;-89
2021/05/14 01:55:28;;;;;;;47.05;17.77;;;11.10;99.90;;;;;;4898377;29;20603;-88
2021/05/14 01:57:56;;;;;;;32.33;18.90;;;11.10;99.90;;;;;;4910837;29;20063;-87
2021/05/14 02:00:25;;;;;;;37.30;18.13;;;11.00;99.90;;;;;;4881817;29;20048;-87
2021/05/14 02:02:56;;;;;;;30.70;15.02;;;11.10;99.90;;;;;;4884644;29;20040;-88
2021/05/14 02:05:24;;;;;;;34.92;15.10;;;11.40;99.90;;;;;;4929071;29;20067;-84
2021/05/14 02:07:52;;;;;;;37.05;17.83;;;10.90;99.90;;;;;;4909327;29;20654;-86
2021/05/14 02:10:20;;;;;;;34.15;15.90;;;11.30;99.90;;;;;;4917710;29;20091;-90
2021/05/14 02:12:49;;;;;;;39.83;16.75;;;10.90;99.90;;;;;;4904635;29;20072;-90
2021/05/14 02:15:17;;;;;;;33.60;16.25;;;10.80;99.90;;;;;;4890778;29;20055;-90
2021/05/14 02:17:45;;;;;;;36.70;16.05;;;10.80;99.90;;;;;;4889052;29;20122;-87
2021/05/14 02:20:13;;;;;;;33.80;17.30;;;10.80;99.90;;;;;;4900252;29;20067;-87
2021/05/14 02:22:42;;;;;;;37.28;17.02;;;10.80;99.90;;;;;;4909271;29;20048;-88
2021/05/14 02:25:10;;;;;;;34.95;17.23;;;10.80;99.90;;;;;;4895514;29;20051;-87
2021/05/14 02:27:38;;;;;;;33.53;16.80;;;10.80;99.90;;;;;;4883260;29;20040;-90
2021/05/14 02:30:07;;;;;;;31.33;15.40;;;10.80;99.90;;;;;;4911637;29;20524;-87
2021/05/14 02:32:35;;;;;;;29.20;15.10;;;10.80;99.90;;;;;;4904579;29;20048;-86
2021/05/14 02:35:04;;;;;;;28.85;14.55;;;10.70;99.90;;;;;;4908665;29;20424;-87
2021/05/14 02:37:31;;;;;;;24.73;13.07;;;10.70;99.90;;;;;;4899486;29;20059;-89
2021/05/14 02:39:59;;;;;;;29.42;14.77;;;10.70;99.90;;;;;;4883497;29;20424;-89
2021/05/14 02:42:27;;;;;;;29.58;13.70;;;10.60;99.90;;;;;;4907004;29;20052;-90
2021/05/14 02:44:55;;;;;;;36.88;16.60;;;10.70;99.90;;;;;;4913444;29;20053;-88
2021/05/14 02:47:22;;;;;;;29.30;14.13;;;10.60;99.90;;;;;;4902856;29;20694;-89
2021/05/14 02:49:50;;;;;;;27.38;14.23;;;10.70;99.90;;;;;;4916559;29;20435;-90
2021/05/14 02:52:18;;;;;;;33.95;15.18;;;10.50;99.90;;;;;;4902111;29;20048;-90
2021/05/14 02:54:46;;;;;;;28.90;13.20;;;11.30;99.90;;;;;;4885723;29;20408;-89
2021/05/14 02:57:14;;;;;;;23.60;11.95;;;10.50;99.90;;;;;;4909158;29;20079;-89
2021/05/14 02:59:42;;;;;;;25.20;12.27;;;10.40;99.90;;;;;;4902893;29;20059;-88
2021/05/14 03:02:09;;;;;;;24.15;12.63;;;10.40;99.90;;;;;;4909900;29;20055;-88
2021/05/14 03:04:37;;;;;;;24.13;11.73;;;10.80;99.90;;;;;;4902511;29;20064;-88
2021/05/14 03:07:05;;;;;;;22.25;10.95;;;10.70;99.90;;;;;;4911658;29;20061;-87
2021/05/14 03:09:33;;;;;;;22.63;11.15;;;10.20;99.90;;;;;;4912005;29;20056;-88
2021/05/14 03:12:01;;;;;;;24.60;12.75;;;10.20;99.90;;;;;;4903924;29;20411;-89
2021/05/14 03:14:29;;;;;;;17.33;10.07;;;10.20;99.90;;;;;;4891432;29;20057;-88
2021/05/14 03:16:59;;;;;;;25.98;13.27;;;10.30;99.90;;;;;;4890725;29;20407;-86
2021/05/14 03:19:27;;;;;;;28.23;10.98;;;10.10;99.90;;;;;;4888754;29;20067;-88
2021/05/14 03:21:55;;;;;;;23.58;13.75;;;10.10;99.90;;;;;;4907642;29;20423;-88
2021/05/14 03:24:24;;;;;;;23.65;10.95;;;10.10;99.90;;;;;;4889733;29;20063;-87
2021/05/14 03:26:54;;;;;;;29.27;12.50;;;10.10;99.90;;;;;;4915557;29;20056;-88
2021/05/14 03:29:22;;;;;;;25.13;12.18;;;10.50;99.90;;;;;;4901485;29;20064;-87
2021/05/14 03:31:49;;;;;;;26.40;12.15;;;10.10;99.90;;;;;;4893161;29;20064;-87
2021/05/14 03:34:17;;;;;;;33.42;14.48;;;11.10;99.90;;;;;;4895601;29;20512;-88
2021/05/14 03:36:46;;;;;;;32.70;12.63;;;10.20;99.90;;;;;;4892060;29;20052;-87
2021/05/14 03:39:15;;;;;;;24.65;10.70;;;10.50;99.90;;;;;;4898613;29;20056;-90
2021/05/14 03:42:23;;;;;;;22.33;12.63;;;10.10;99.90;;;;;;4898786;29;20059;-88
2021/05/14 03:44:36;;;;;;;24.65;13.65;;;10.10;99.90;;;;;;4905327;29;20439;-84
2021/05/14 03:47:05;;;;;;;23.05;11.95;;;10.80;99.90;;;;;;4929868;29;20052;-87
2021/05/14 03:49:38;;;;;;;32.00;12.52;;;10.10;99.90;;;;;;4919789;29;20052;-88
2021/05/14 03:52:09;;;;;;;26.33;11.05;;;10.00;99.90;;;;;;4907206;29;20064;-86
2021/05/14 03:54:41;;;;;;;;;;;10.00;99.90;;;;;;4907255;29;20503;-86
2021/05/14 03:57:08;;;;;;;24.25;14.45;;;10.00;99.90;;;;;;4890454;29;19934;-87
2021/05/14 03:59:38;;;;;;;27.30;11.38;;;10.30;99.90;;;;;;4909977;29;20666;-88
2021/05/14 04:02:05;;;;;;;23.10;11.63;;;9.90;99.90;;;;;;4911734;29;20068;-88
2021/05/14 04:04:33;;;;;;;21.48;11.57;;;10.20;99.90;;;;;;4906710;29;20059;-87
2021/05/14 04:07:04;;;;;;;27.25;13.73;;;9.90;99.90;;;;;;4899713;29;20056;-86
2021/05/14 04:09:34;;;;;;;28.98;16.77;;;9.90;99.90;;;;;;4907486;29;20052;-84
2021/05/14 04:12:11;;;;;;;27.63;15.25;;;10.70;99.90;;;;;;4909268;29;20052;-87
2021/05/14 04:14:40;;;;;;;27.27;14.93;;;9.80;99.90;;;;;;4930919;29;20459;-85
2021/05/14 04:17:13;;;;;;;26.60;14.05;;;9.80;99.90;;;;;;4908931;29;20078;-87
2021/05/14 04:19:40;;;;;;;25.70;14.27;;;9.80;99.90;;;;;;4907969;29;20056;-87
2021/05/14 04:22:09;;;;;;;27.92;14.45;;;9.80;99.90;;;;;;4901707;29;20059;-85
2021/05/14 04:24:37;;;;;;;24.80;13.60;;;9.80;99.90;;;;;;4897745;29;20488;-87
2021/05/14 04:27:04;;;;;;;25.55;12.38;;;9.90;99.90;;;;;;4888506;29;20052;-87
2021/05/14 04:29:32;;;;;;;29.00;13.57;;;9.70;99.90;;;;;;4913197;29;20044;-89
2021/05/14 04:32:01;;;;;;;22.15;10.52;;;9.70;99.90;;;;;;4894278;29;20048;-85
2021/05/14 04:34:29;;;;;;;21.00;11.98;;;9.90;99.90;;;;;;4901041;29;20061;-85
2021/05/14 04:37:03;;;;;;;23.50;11.55;;;11.00;99.90;;;;;;4893585;29;20052;-85
2021/05/14 04:39:31;;;;;;;19.35;10.93;;;9.70;99.90;;;;;;4914808;29;20064;-86
2021/05/14 04:41:59;;;;;;;22.42;11.23;;;9.70;99.90;;;;;;4896596;29;20064;-89
2021/05/14 04:44:28;;;;;;;22.83;12.38;;;9.70;99.90;;;;;;4914624;29;20051;-88
2021/05/14 04:46:56;;;;;;;29.00;12.13;;;10.00;99.90;;;;;;4889203;29;20416;-86
2021/05/14 04:49:24;;;;;;;22.35;11.82;;;10.50;99.90;;;;;;4899823;29;20049;-87
2021/05/14 04:51:56;;;;;;;22.30;11.82;;;9.60;99.90;;;;;;4886196;29;20244;-87
2021/05/14 04:54:25;;;;;;;26.95;12.40;;;9.60;99.90;;;;;;4912610;29;20055;-84
2021/05/14 04:56:53;;;;;;;18.83;9.48;;;9.70;99.90;;;;;;4903891;29;20052;-88
2021/05/14 04:59:21;;;;;;;22.60;10.57;;;9.60;99.90;;;;;;4897822;29;20060;-87
2021/05/14 05:01:50;;;;;;;18.20;9.65;;;9.60;99.90;;;;;;4902922;29;20049;-87
2021/05/14 05:04:22;;;;;;;18.20;10.48;;;9.60;99.90;;;;;;4886453;29;20059;-89
2021/05/14 05:06:50;;;;;;;20.88;10.55;;;9.60;99.90;;;;;;4911659;29;20059;-88
2021/05/14 05:09:17;;;;;;;22.95;10.45;;;9.60;99.90;;;;;;4896193;29;20064;-86
2021/05/14 05:11:45;;;;;;;22.83;10.55;;;9.60;99.90;;;;;;4911835;29;20048;-86
2021/05/14 05:14:13;;;;;;;21.70;10.15;;;10.20;99.90;;;;;;4904734;29;20511;-85
2021/05/14 05:16:41;;;;;;;20.42;11.82;;;9.90;99.90;;;;;;4881778;29;20055;-85
2021/05/14 05:19:08;;;;;;;19.38;8.45;;;9.60;99.90;;;;;;4878540;29;20679;-88
2021/05/14 05:21:36;;;;;;;20.08;10.02;;;10.20;99.90;;;;;;4902390;29;20814;-87
2021/05/14 05:24:04;;;;;;;17.58;9.45;;;9.50;99.90;;;;;;4901352;29;20416;-87
2021/05/14 05:26:32;;;;;;;14.95;8.93;;;9.50;99.90;;;;;;4887574;29;20071;-86
2021/05/14 05:29:00;;;;;;;17.02;8.20;;;10.40;99.90;;;;;;4913487;29;20070;-87
2021/05/14 05:31:28;;;;;;;18.73;8.73;;;9.60;99.90;;;;;;4879364;29;20055;-88
2021/05/14 05:33:56;;;;;;;16.17;7.57;;;10.70;99.90;;;;;;4891734;29;20056;-88
2021/05/14 05:36:23;;;;;;;18.88;7.85;;;9.60;99.90;;;;;;4892938;29;20076;-88
2021/05/14 05:38:51;;;;;;;15.02;6.75;;;9.60;99.90;;;;;;4894578;29;20516;-88
2021/05/14 05:41:19;;;;;;;14.90;8.15;;;9.60;99.90;;;;;;4896892;29;20143;-87
2021/05/14 05:43:46;;;;;;;21.23;8.95;;;10.60;99.90;;;;;;4893322;29;20048;-86
2021/05/14 05:46:14;;;;;;;18.60;11.15;;;9.40;99.90;;;;;;4881609;29;20060;-86
2021/05/14 05:48:46;;;;;;;17.20;8.45;;;9.60;99.90;;;;;;4888491;29;20393;-86
2021/05/14 05:51:14;;;;;;;18.73;9.38;;;9.60;99.90;;;;;;4908251;29;20728;-85
2021/05/14 05:53:43;;;;;;;16.45;9.30;;;9.50;99.90;;;;;;4912588;29;20060;-88
2021/05/14 05:56:11;;;;;;;17.73;9.38;;;9.80;99.90;;;;;;4895573;29;20056;-88
2021/05/14 05:58:39;;;;;;;19.63;8.73;;;9.60;99.90;;;;;;4898470;29;20052;-85
2021/05/14 06:01:07;;;;;;;18.90;8.32;;;9.70;99.90;;;;;;4897281;29;20056;-87
2021/05/14 06:03:35;;;;;;;22.23;8.55;;;9.70;99.90;;;;;;4906115;29;20055;-88
2021/05/14 06:06:03;;;;;;;21.25;8.02;;;9.70;99.90;;;;;;4900528;29;20083;-87
2021/05/14 06:08:31;;;;;;;20.25;9.77;;;9.70;99.90;;;;;;4907832;29;20055;-88
2021/05/14 06:11:00;;;;;;;17.33;8.60;;;9.70;99.90;;;;;;4908895;29;20060;-90
2021/05/14 06:13:31;;;;;;;21.92;9.57;;;9.80;99.90;;;;;;4914858;29;20511;-88
2021/05/14 06:16:00;;;;;;;18.30;10.10;;;9.80;99.90;;;;;;4899454;29;20075;-86
2021/05/14 06:18:36;;;;;;;20.17;8.73;;;10.10;99.90;;;;;;4903769;29;20059;-91
2021/05/14 06:21:05;;;;;;;19.67;7.85;;;9.90;99.90;;;;;;4913913;29;20063;-87
2021/05/14 06:23:33;;;;;;;21.55;10.15;;;9.90;99.90;;;;;;4889853;29;20051;-89
2021/05/14 06:26:00;;;;;;;17.42;8.20;;;9.90;99.90;;;;;;4891622;29;20060;-87
2021/05/14 06:28:30;;;;;;;26.23;9.38;;;10.50;99.90;;;;;;4906267;29;20744;-88
2021/05/14 06:30:59;;;;;;;18.90;9.27;;;10.00;99.90;;;;;;4905017;29;20056;-90
2021/05/14 06:33:27;;;;;;;17.23;8.90;;;10.00;99.90;;;;;;4904473;29;20056;-89
2021/05/14 06:35:57;;;;;;;19.13;10.80;;;10.10;99.90;;;;;;4881884;29;20046;-89
2021/05/14 06:38:25;;;;;;;20.05;8.73;;;10.10;99.90;;;;;;4889675;29;20452;-85
2021/05/14 06:40:53;;;;;;;21.63;9.25;;;10.20;99.90;;;;;;4880980;29;20071;-86
2021/05/14 06:43:21;;;;;;;20.52;9.73;;;10.40;99.90;;;;;;4911592;29;20535;-87
2021/05/14 06:45:49;;;;;;;22.35;10.50;;;11.70;99.90;;;;;;4897029;29;20051;-87
2021/05/14 06:48:17;;;;;;;22.90;11.20;;;10.50;99.90;;;;;;4910596;29;20067;-86
2021/05/14 06:50:44;;;;;;;21.33;11.13;;;10.50;99.90;;;;;;4893635;29;20055;-86
2021/05/14 06:53:17;;;;;;;20.42;10.52;;;10.50;99.90;;;;;;4892029;29;20052;-83
2021/05/14 06:55:46;;;;;;;22.35;12.50;;;10.60;99.90;;;;;;4880935;29;20362;-82
2021/05/14 06:58:14;;;;;;;20.92;11.55;;;10.90;99.90;;;;;;4891962;29;20067;-84
2021/05/14 07:00:43;;;;;;;21.95;9.65;;;11.60;99.90;;;;;;4913999;29;20063;-87
2021/05/14 07:03:11;;;;;;;17.45;10.52;;;10.70;99.90;;;;;;4894205;29;20060;-84
2021/05/14 07:05:38;;;;;;;19.52;10.07;;;10.70;99.90;;;;;;4895643;29;20041;-85
2021/05/14 07:08:06;;;;;;;20.00;11.52;;;10.70;99.90;;;;;;4891989;29;20608;-84
2021/05/14 07:10:34;;;;;;;19.52;9.57;;;10.70;99.90;;;;;;4899289;29;20155;-84
2021/05/14 07:13:02;;;;;;;17.58;9.35;;;10.70;99.90;;;;;;4866954;29;20799;-86
2021/05/14 07:15:30;;;;;;;18.30;9.85;;;10.70;99.90;;;;;;4907135;29;20062;-85
2021/05/14 07:18:01;;;;;;;21.02;10.32;;;10.80;99.90;;;;;;4872944;29;20044;-85
2021/05/14 07:20:32;;;;;;;20.63;11.63;;;10.70;99.90;;;;;;4550543;29;9999655;-86
2021/05/14 07:23:00;;;;;;;23.42;9.68;;;10.80;99.90;;;;;;4895627;29;20048;-85
2021/05/14 07:25:28;;;;;;;19.60;9.52;;;10.80;99.90;;;;;;4893471;29;20523;-85
2021/05/14 07:27:57;;;;;;;18.83;10.25;;;10.80;99.90;;;;;;4866883;29;20067;-88
2021/05/14 07:30:25;;;;;;;23.30;10.27;;;10.80;99.90;;;;;;4847901;29;20052;-88
2021/05/14 07:32:53;;;;;;;22.45;10.40;;;10.80;99.90;;;;;;4885981;29;20152;-84
2021/05/14 07:35:21;;;;;;;21.52;9.55;;;11.00;99.90;;;;;;4892992;29;20079;-85
2021/05/14 07:38:07;;;;;;;19.80;8.45;;;10.90;99.90;;;;;;4911672;29;20059;-85
2021/05/14 07:40:35;;;;;;;20.08;8.07;;;10.90;99.90;;;;;;4898207;29;20064;-84
2021/05/14 07:43:03;;;;;;;16.63;9.10;;;10.90;99.90;;;;;;4905341;29;20067;-84
2021/05/14 07:45:31;;;;;;;26.33;10.02;;;10.90;99.90;;;;;;4910887;29;20574;-84
2021/05/14 07:48:19;;;;;;;20.02;8.88;;;11.60;99.90;;;;;;4907182;29;20059;-84
2021/05/14 07:50:48;;;;;;;15.32;8.68;;;10.80;99.90;;;;;;4900616;29;20420;-85
2021/05/14 07:53:16;;;;;;;22.83;9.68;;;10.80;99.90;;;;;;4905127;29;20063;-85
2021/05/14 07:55:44;;;;;;;23.58;9.07;;;10.90;99.90;;;;;;4868568;29;20062;-85
2021/05/14 07:58:12;;;;;;;23.95;10.40;;;11.40;99.90;;;;;;4888253;29;20109;-85
2021/05/14 08:00:40;;;;;;;18.95;9.30;;;10.90;99.90;;;;;;4906782;29;20052;-85
2021/05/14 08:03:08;;;;;;;22.15;9.70;;;10.90;99.90;;;;;;4906505;29;20768;-85
2021/05/14 08:05:36;;;;;;;21.88;9.30;;;11.10;99.90;;;;;;4909787;29;20061;-85
2021/05/14 08:08:09;;;;;;;20.40;8.23;;;11.10;99.90;;;;;;4892925;29;20062;-85
2021/05/14 08:10:42;;;;;;;21.60;10.48;;;11.20;99.90;;;;;;4902331;29;20064;-85
2021/05/14 08:13:26;;;;;;;18.15;8.23;;;11.30;99.90;;;;;;4892996;29;20056;-85
2021/05/14 08:15:54;;;;;;;19.02;9.63;;;11.30;99.90;;;;;;4876278;29;20047;-84
2021/05/14 08:18:21;;;;;;;21.70;9.55;;;11.30;99.90;;;;;;4910059;29;20488;-85
2021/05/14 08:20:50;;;;;;;19.15;9.77;;;11.40;99.90;;;;;;4910370;29;20511;-85
2021/05/14 08:23:20;;;;;;;18.95;8.10;;;11.50;99.90;;;;;;4887694;29;20048;-86
2021/05/14 08:25:50;;;;;;;20.85;9.77;;;11.60;99.90;;;;;;4881342;29;20079;-84
2021/05/14 08:28:19;;;;;;;14.73;7.90;;;11.80;99.90;;;;;;4884766;29;20060;-85
2021/05/14 08:30:48;;;;;;;20.85;9.60;;;11.70;99.90;;;;;;4883084;29;20041;-85
2021/05/14 08:33:16;;;;;;;21.10;10.70;;;11.70;99.90;;;;;;4902286;29;20057;-84
2021/05/14 08:35:44;;;;;;;18.00;9.25;;;11.70;99.90;;;;;;4897749;29;20178;-85
2021/05/14 08:38:12;;;;;;;18.95;8.40;;;11.60;99.90;;;;;;4916616;29;20207;-86
2021/05/14 08:40:40;;;;;;;22.70;8.63;;;11.60;99.90;;;;;;4899125;29;20071;-85
2021/05/14 08:43:11;;;;;;;18.60;8.02;;;11.60;99.90;;;;;;4907586;29;20531;-84
2021/05/14 08:45:40;;;;;;;17.30;8.55;;;11.60;99.90;;;;;;4893760;29;20763;-86
2021/05/14 08:48:13;;;;;;;15.45;8.82;;;11.60;99.90;;;;;;4909271;29;20780;-87
2021/05/14 08:50:42;;;;;;;17.67;9.20;;;11.60;99.90;;;;;;4911421;29;20041;-86
2021/05/14 08:53:30;;;;;;;17.77;9.10;;;11.60;99.90;;;;;;4906243;29;20071;-85
2021/05/14 08:55:59;;;;;;;20.50;9.63;;;12.10;99.90;;;;;;4879073;29;20055;-86
2021/05/14 08:58:27;;;;;;;18.52;8.68;;;11.60;99.90;;;;;;4907405;29;20048;-85
2021/05/14 09:00:55;;;;;;;23.75;8.77;;;11.60;99.90;;;;;;4908147;29;20055;-87
2021/05/14 09:03:27;;;;;;;18.48;9.60;;;11.50;99.90;;;;;;4891167;29;20052;-85
2021/05/14 09:05:56;;;;;;;23.83;9.95;;;11.60;99.90;;;;;;4888395;29;20052;-85
2021/05/14 09:08:30;;;;;;;17.90;9.73;;;11.60;99.90;;;;;;4898409;29;20551;-86
2021/05/14 09:10:59;;;;;;;20.60;9.20;;;11.80;99.90;;;;;;4905549;29;20727;-85
2021/05/14 09:13:37;;;;;;;22.35;10.55;;;12.00;99.90;;;;;;4891774;29;20125;-85
2021/05/14 09:16:05;;;;;;;22.23;11.00;;;12.10;99.90;;;;;;4906309;29;20071;-84
2021/05/14 09:18:33;;;;;;;24.88;11.55;;;12.20;99.90;;;;;;4888243;29;20052;-86
2021/05/14 09:21:02;;;;;;;24.02;10.65;;;12.90;99.90;;;;;;4902092;29;20529;-86
2021/05/14 09:23:32;;;;;;;16.55;8.60;;;12.40;99.90;;;;;;4908361;29;20048;-85
2021/05/14 09:26:02;;;;;;;19.48;10.10;;;12.60;99.90;;;;;;4894010;29;20048;-85
2021/05/14 09:28:39;;;;;;;17.73;10.38;;;13.00;99.90;;;;;;4890449;29;20069;-85
2021/05/14 09:31:24;;;;;;;20.15;10.68;;;12.50;99.90;;;;;;4891523;29;20434;-85
2021/05/14 09:34:00;;;;;;;18.02;9.32;;;12.60;99.90;;;;;;4905952;29;20056;-85
2021/05/14 09:36:30;;;;;;;22.88;11.73;;;12.60;99.90;;;;;;4910685;29;20056;-84
2021/05/14 09:39:00;;;;;;;19.30;9.15;;;12.60;99.90;;;;;;4909581;29;20790;-86
2021/05/14 09:41:43;;;;;;;19.05;7.97;;;12.50;99.90;;;;;;4872876;29;20048;-87
2021/05/14 09:44:20;;;;;;;17.25;7.90;;;12.50;99.90;;;;;;4902245;29;20048;-89
2021/05/14 09:46:57;;;;;;;18.38;9.30;;;12.50;99.90;;;;;;4903809;29;20060;-85
2021/05/14 09:49:29;;;;;;;17.02;9.07;;;12.50;99.90;;;;;;4903802;29;20626;-85
2021/05/14 09:52:09;;;;;;;16.15;8.25;;;12.50;99.90;;;;;;4877030;29;20063;-85
2021/05/14 09:54:42;;;;;;;17.67;7.82;;;12.60;99.90;;;;;;4908273;29;20137;-85
2021/05/14 09:59:47;;;;;;;20.80;10.48;;;12.80;99.90;;;;;;4903534;29;20056;-87
2021/05/14 10:02:21;;;;;;;17.17;8.90;;;12.80;99.90;;;;;;4890583;29;20052;-85
2021/05/14 10:04:50;;;;;;;16.35;8.35;;;12.80;99.90;;;;;;4891390;29;20060;-86
2021/05/14 10:07:19;;;;;;;20.50;8.30;;;12.90;99.90;;;;;;4893417;29;20055;-86
2021/05/14 10:09:54;;;;;;;19.25;8.55;;;12.90;99.90;;;;;;4905930;29;20052;-85
2021/05/14 10:12:23;;;;;;;22.35;9.13;;;12.80;99.90;;;;;;4906868;29;20652;-86
2021/05/14 10:14:56;;;;;;;16.00;7.65;;;12.80;99.90;;;;;;4876836;29;20060;-85
2021/05/14 10:17:25;;;;;;;21.55;9.57;;;12.70;99.90;;;;;;4897192;29;20067;-85
2021/05/14 10:19:54;;;;;;;20.08;8.95;;;12.70;99.90;;;;;;4874499;29;20527;-86
2021/05/14 10:22:30;;;;;;;19.25;8.55;;;12.70;99.90;;;;;;4868315;29;20806;-86
2021/05/14 10:24:59;;;;;;;19.70;9.60;;;12.70;99.90;;;;;;4901528;29;20057;-86
2021/05/14 10:27:29;;;;;;;16.17;9.07;;;12.70;99.90;;;;;;4908788;29;20078;-85
2021/05/14 10:29:58;;;;;;;16.58;9.18;;;12.70;99.90;;;;;;4906542;29;20063;-85
2021/05/14 10:32:43;;;;;;;17.27;8.13;;;12.70;99.90;;;;;;4917967;29;20463;-86
2021/05/14 10:35:20;;;;;;;24.48;8.80;;;12.70;99.90;;;;;;4880586;29;20060;-86
2021/05/14 10:37:55;;;;;;;18.73;8.77;;;12.80;99.90;;;;;;4891343;29;20412;-86
2021/05/14 10:40:29;;;;;;;20.30;7.47;;;12.70;99.90;;;;;;4863063;29;20063;-86
2021/05/14 10:42:57;;;;;;;16.95;7.95;;;12.50;99.90;;;;;;4885333;29;20052;-86
2021/05/14 10:45:44;;;;;;;25.85;9.85;;;12.50;99.90;;;;;;4877058;29;20048;-85
2021/05/14 10:48:18;;;;;;;18.83;9.20;;;12.40;99.90;;;;;;4908346;29;20064;-86
2021/05/14 10:50:53;;;;;;;20.75;9.20;;;12.40;99.90;;;;;;4887397;29;20044;-85
2021/05/14 10:53:28;;;;;;;16.50;8.35;;;12.40;99.90;;;;;;4896496;29;20052;-86
2021/05/14 10:56:11;;;;;;;18.05;7.70;;;12.40;99.90;;;;;;4908535;29;20063;-85
2021/05/14 10:58:43;;;;;;;21.45;9.98;;;12.50;99.90;;;;;;4895910;29;20044;-85
2021/05/14 11:01:36;;;;;;;16.30;8.60;;;12.50;99.90;;;;;;4904316;29;20049;-85
2021/05/14 11:04:12;;;;;;;18.98;8.82;;;12.60;99.90;;;;;;4900446;29;20056;-87
2021/05/14 11:06:45;;;;;;;22.30;10.15;;;12.70;99.90;;;;;;4881039;29;20051;-88
2021/05/14 11:09:15;;;;;;;23.05;10.65;;;12.80;99.90;;;;;;4897782;29;20060;-87
2021/05/14 11:11:56;;;;;;;21.20;9.57;;;12.90;99.90;;;;;;4889335;29;20045;-86
2021/05/14 11:14:42;;;;;;;19.30;8.60;;;13.00;99.90;;;;;;4874173;29;20413;-87
2021/05/14 11:17:12;;;;;;;22.98;10.23;;;13.00;99.90;;;;;;4905809;29;20437;-85
2021/05/14 11:19:47;;;;;;;21.67;9.27;;;13.20;99.90;;;;;;4890677;29;20044;-86
2021/05/14 11:22:23;;;;;;;22.27;9.95;;;13.00;99.90;;;;;;4898990;29;20060;-86
2021/05/14 11:24:52;;;;;;;18.63;9.27;;;13.00;99.90;;;;;;4888803;29;20053;-86
2021/05/14 11:27:21;;;;;;;24.50;9.82;;;12.90;99.90;;;;;;4878495;29;20056;-86
2021/05/14 11:29:52;;;;;;;20.20;9.68;;;13.10;99.90;;;;;;4880969;29;20063;-86
2021/05/14 11:32:23;;;;;;;20.75;9.77;;;12.80;99.90;;;;;;4913436;29;20055;-83
2021/05/14 11:34:58;;;;;;;21.77;9.52;;;12.80;99.90;;;;;;4893434;29;20056;-85
2021/05/14 11:37:40;;;;;;;23.13;9.90;;;12.70;99.90;;;;;;4906896;29;20052;-85
2021/05/14 11:40:14;;;;;;;17.88;9.00;;;12.90;99.90;;;;;;4908622;29;20059;-85
2021/05/14 11:42:47;;;;;;;17.58;9.30;;;13.00;99.90;;;;;;4882635;29;20071;-84
2021/05/14 11:45:19;;;;;;;20.52;9.27;;;13.20;99.90;;;;;;4910628;29;20048;-84
2021/05/14 11:47:53;;;;;;;21.90;10.20;;;13.40;99.90;;;;;;4907221;29;20055;-85
2021/05/14 11:50:31;;;;;;;22.15;9.05;;;13.50;99.90;;;;;;4909205;29;20055;-85
2021/05/14 11:53:01;;;;;;;21.75;10.40;;;13.70;99.90;;;;;;4874040;29;20060;-84
2021/05/14 11:55:29;;;;;;;20.05;9.93;;;13.70;99.90;;;;;;4874679;29;20870;-86
2021/05/14 11:58:01;;;;;;;18.90;11.23;;;13.70;99.90;;;;;;4910953;29;20044;-86
2021/05/14 12:00:36;;;;;;;19.92;9.27;;;13.70;99.90;;;;;;4886487;29;20507;-86
2021/05/14 12:03:04;;;;;;;17.05;8.77;;;13.80;99.90;;;;;;4909559;29;20067;-83
2021/05/14 12:05:34;;;;;;;22.02;11.55;;;13.90;99.90;;;;;;4892079;29;20060;-85
2021/05/14 12:08:11;;;;;;;27.23;10.15;;;13.90;99.90;;;;;;4909389;29;20067;-85
2021/05/14 12:10:55;;;;;;;19.65;9.48;;;14.00;99.90;;;;;;4892544;29;20519;-86
2021/05/14 12:13:31;;;;;;;20.98;8.77;;;14.00;99.90;;;;;;4875110;29;20500;-84
2021/05/14 12:16:05;;;;;;;19.15;8.77;;;14.10;99.90;;;;;;4888798;29;20060;-85
2021/05/14 12:18:36;;;;;;;18.60;10.05;;;14.20;99.90;;;;;;4887667;29;20056;-86
2021/05/14 12:21:08;;;;;;;18.50;9.37;;;14.20;99.90;;;;;;4893061;29;20052;-86
2021/05/14 12:23:36;;;;;;;20.08;9.43;;;14.30;99.90;;;;;;4873723;29;20789;-83
2021/05/14 12:26:08;;;;;;;23.45;10.02;;;14.30;99.90;;;;;;4893979;29;20055;-89
2021/05/14 12:28:38;;;;;;;16.83;9.30;;;14.30;99.90;;;;;;4905499;29;20067;-85
2021/05/14 12:31:28;;;;;;;21.92;8.95;;;14.30;99.90;;;;;;4895191;29;20044;-85
2021/05/14 12:34:02;;;;;;;23.05;10.05;;;14.20;99.90;;;;;;4887561;29;20052;-85
2021/05/14 12:36:34;;;;;;;16.38;8.25;;;14.20;99.90;;;;;;4886519;29;20079;-85
2021/05/14 12:39:17;;;;;;;14.40;7.70;;;14.30;99.90;;;;;;4894564;29;20133;-86
2021/05/14 12:41:56;;;;;;;15.02;8.70;;;14.30;99.90;;;;;;4907814;29;20385;-85
2021/05/14 12:44:31;;;;;;;18.67;8.55;;;14.30;99.90;;;;;;4910477;29;20063;-84
2021/05/14 12:47:05;;;;;;;20.08;10.10;;;14.30;99.90;;;;;;4893292;29;20079;-85
2021/05/14 12:49:40;;;;;;;16.38;9.07;;;14.30;99.90;;;;;;4909972;29;20062;-82
2021/05/14 12:52:10;;;;;;;13.13;7.00;;;14.40;99.90;;;;;;4903159;29;20058;-84